Richville, Utah
Current Conditions -  °F | °C
As of 11:58 PM on Wednesday 22 Oct 2014 (Local Time) from KHIF Reporting Station
Clear Clear  
Wind Chill: 44°   Ceiling: Unl
Heat Index: 48°   Visibility: 10mi
Dew Point: 25°   Wind: 12mph
Humidity: 41%   Direction: 120°ESE
Pressure: 30.18"   Gusts: NA
Location:  41.0884°N, 111.576°W
Report Text: KHIF 230558Z AUTO 12010KT 10SM CLR 09/M04 A3018 RMK AO2 DZB0505E0515 SLP195 P0000 60000 T00911037 10150 20087 56001
Loading
Personal Weather Stations






























Interactive Weather Map
Tropical Storm Tracking
New forecast layout! Learn more

10-Day Weather Forecast

Advertisements
Track Severe Weather on mobile